sensor_id;sensor_type;location;lat;lon;timestamp;temperature;humidity
34536;DHT22;20779;55.596;37.538;2022-07-10T00:00:43;16.60;99.90
34536;DHT22;20779;55.596;37.538;2022-07-10T00:03:09;16.70;99.90
34536;DHT22;20779;55.596;37.538;2022-07-10T00:05:36;16.70;99.90
34536;DHT22;20779;55.596;37.538;2022-07-10T00:08:02;16.80;99.90
34536;DHT22;20779;55.596;37.538;2022-07-10T00:10:29;16.90;99.90
34536;DHT22;20779;55.596;37.538;2022-07-10T00:12:56;16.90;99.90
34536;DHT22;20779;55.596;37.538;2022-07-10T00:15:22;17.00;99.90
34536;DHT22;20779;55.596;37.538;2022-07-10T00:17:48;17.10;99.90
34536;DHT22;20779;55.596;37.538;2022-07-10T00:20:16;17.10;99.90
34536;DHT22;20779;55.596;37.538;2022-07-10T00:22:42;17.00;99.90
34536;DHT22;20779;55.596;37.538;2022-07-10T00:25:11;17.00;99.90
34536;DHT22;20779;55.596;37.538;2022-07-10T00:27:39;17.00;99.90
34536;DHT22;20779;55.596;37.538;2022-07-10T00:30:08;17.00;99.90
34536;DHT22;20779;55.596;37.538;2022-07-10T00:32:35;17.10;99.90
34536;DHT22;20779;55.596;37.538;2022-07-10T00:35:03;17.10;99.90
34536;DHT22;20779;55.596;37.538;2022-07-10T00:37:30;17.10;99.90
34536;DHT22;20779;55.596;37.538;2022-07-10T00:39:56;17.10;99.90
34536;DHT22;20779;55.596;37.538;2022-07-10T00:42:23;17.10;99.90
34536;DHT22;20779;55.596;37.538;2022-07-10T00:44:49;17.10;99.90
34536;DHT22;20779;55.596;37.538;2022-07-10T00:47:15;17.10;99.90
34536;DHT22;20779;55.596;37.538;2022-07-10T00:49:45;17.10;99.90
34536;DHT22;20779;55.596;37.538;2022-07-10T00:52:15;17.10;99.90
34536;DHT22;20779;55.596;37.538;2022-07-10T00:54:44;17.00;99.90
34536;DHT22;20779;55.596;37.538;2022-07-10T00:57:13;17.00;99.90
34536;DHT22;20779;55.596;37.538;2022-07-10T00:59:40;17.00;99.90
34536;DHT22;20779;55.596;37.538;2022-07-10T01:02:07;17.10;99.90
34536;DHT22;20779;55.596;37.538;2022-07-10T01:04:33;17.10;99.90
34536;DHT22;20779;55.596;37.538;2022-07-10T01:07:00;17.20;99.90
34536;DHT22;20779;55.596;37.538;2022-07-10T01:09:26;17.30;99.90
34536;DHT22;20779;55.596;37.538;2022-07-10T01:11:55;17.30;99.90
34536;DHT22;20779;55.596;37.538;2022-07-10T01:14:22;17.40;99.90
34536;DHT22;20779;55.596;37.538;2022-07-10T01:16:50;17.50;99.90
34536;DHT22;20779;55.596;37.538;2022-07-10T01:19:16;17.50;99.90
34536;DHT22;20779;55.596;37.538;2022-07-10T01:21:42;17.60;99.90
34536;DHT22;20779;55.596;37.538;2022-07-10T01:24:10;17.50;99.90
34536;DHT22;20779;55.596;37.538;2022-07-10T01:26:38;17.40;99.90
34536;DHT22;20779;55.596;37.538;2022-07-10T01:29:09;17.50;99.90
34536;DHT22;20779;55.596;37.538;2022-07-10T01:31:37;17.50;99.90
34536;DHT22;20779;55.596;37.538;2022-07-10T01:34:06;17.50;99.90
34536;DHT22;20779;55.596;37.538;2022-07-10T01:36:35;17.60;99.90
34536;DHT22;20779;55.596;37.538;2022-07-10T01:39:02;17.50;99.90
34536;DHT22;20779;55.596;37.538;2022-07-10T01:41:29;17.40;99.90
34536;DHT22;20779;55.596;37.538;2022-07-10T01:43:55;17.40;99.90
34536;DHT22;20779;55.596;37.538;2022-07-10T01:46:21;17.40;99.90
34536;DHT22;20779;55.596;37.538;2022-07-10T01:48:47;17.50;99.90
34536;DHT22;20779;55.596;37.538;2022-07-10T01:51:14;17.50;99.90
34536;DHT22;20779;55.596;37.538;2022-07-10T01:53:40;17.60;99.90
34536;DHT22;20779;55.596;37.538;2022-07-10T01:56:10;17.70;99.90
34536;DHT22;20779;55.596;37.538;2022-07-10T01:58:37;17.80;99.90
34536;DHT22;20779;55.596;37.538;2022-07-10T02:01:04;17.60;99.90
34536;DHT22;20779;55.596;37.538;2022-07-10T02:03:31;17.50;99.90
34536;DHT22;20779;55.596;37.538;2022-07-10T02:06:16;17.50;99.90
34536;DHT22;20779;55.596;37.538;2022-07-10T02:08:43;17.50;99.90
34536;DHT22;20779;55.596;37.538;2022-07-10T02:11:09;17.50;99.90
34536;DHT22;20779;55.596;37.538;2022-07-10T02:13:38;17.40;99.90
34536;DHT22;20779;55.596;37.538;2022-07-10T02:16:05;17.50;99.90
34536;DHT22;20779;55.596;37.538;2022-07-10T02:18:31;17.50;99.90
34536;DHT22;20779;55.596;37.538;2022-07-10T02:20:58;17.60;99.90
34536;DHT22;20779;55.596;37.538;2022-07-10T02:23:24;17.70;99.90
34536;DHT22;20779;55.596;37.538;2022-07-10T02:25:50;17.90;99.90
34536;DHT22;20779;55.596;37.538;2022-07-10T02:28:16;18.10;99.90
34536;DHT22;20779;55.596;37.538;2022-07-10T02:30:42;18.50;99.90
34536;DHT22;20779;55.596;37.538;2022-07-10T02:33:09;19.10;99.90
34536;DHT22;20779;55.596;37.538;2022-07-10T02:35:35;19.70;99.90
34536;DHT22;20779;55.596;37.538;2022-07-10T02:38:01;20.30;99.90
34536;DHT22;20779;55.596;37.538;2022-07-10T02:40:27;20.80;99.90
34536;DHT22;20779;55.596;37.538;2022-07-10T02:42:53;21.20;99.90
34536;DHT22;20779;55.596;37.538;2022-07-10T02:45:19;21.60;99.90
34536;DHT22;20779;55.596;37.538;2022-07-10T02:47:45;21.50;99.90
34536;DHT22;20779;55.596;37.538;2022-07-10T02:50:11;21.30;99.90
34536;DHT22;20779;55.596;37.538;2022-07-10T02:52:37;21.40;99.90
34536;DHT22;20779;55.596;37.538;2022-07-10T02:55:04;21.40;99.90
34536;DHT22;20779;55.596;37.538;2022-07-10T02:57:31;21.10;99.90
34536;DHT22;20779;55.596;37.538;2022-07-10T02:59:57;20.60;99.90
34536;DHT22;20779;55.596;37.538;2022-07-10T03:02:23;20.10;99.90
34536;DHT22;20779;55.596;37.538;2022-07-10T03:04:49;19.70;99.90
34536;DHT22;20779;55.596;37.538;2022-07-10T03:07:15;19.50;99.90
34536;DHT22;20779;55.596;37.538;2022-07-10T03:09:41;19.20;99.90
34536;DHT22;20779;55.596;37.538;2022-07-10T03:12:07;19.20;99.90
34536;DHT22;20779;55.596;37.538;2022-07-10T03:14:33;19.20;99.90
34536;DHT22;20779;55.596;37.538;2022-07-10T03:16:59;19.20;99.90
34536;DHT22;20779;55.596;37.538;2022-07-10T03:19:26;19.10;99.90
34536;DHT22;20779;55.596;37.538;2022-07-10T03:21:52;19.00;99.90
34536;DHT22;20779;55.596;37.538;2022-07-10T03:24:18;19.00;99.90
34536;DHT22;20779;55.596;37.538;2022-07-10T03:26:44;18.90;99.90
34536;DHT22;20779;55.596;37.538;2022-07-10T03:29:10;18.80;99.90
34536;DHT22;20779;55.596;37.538;2022-07-10T03:31:37;18.80;99.90
34536;DHT22;20779;55.596;37.538;2022-07-10T03:34:03;18.70;99.90
34536;DHT22;20779;55.596;37.538;2022-07-10T03:36:29;18.70;99.90
34536;DHT22;20779;55.596;37.538;2022-07-10T03:38:55;18.60;99.90
34536;DHT22;20779;55.596;37.538;2022-07-10T03:41:21;18.60;99.90
34536;DHT22;20779;55.596;37.538;2022-07-10T03:43:47;18.60;99.90
34536;DHT22;20779;55.596;37.538;2022-07-10T03:46:13;18.50;99.90
34536;DHT22;20779;55.596;37.538;2022-07-10T03:48:39;18.30;99.90
34536;DHT22;20779;55.596;37.538;2022-07-10T03:51:06;18.20;99.90
34536;DHT22;20779;55.596;37.538;2022-07-10T03:53:32;18.20;99.90
34536;DHT22;20779;55.596;37.538;2022-07-10T03:55:58;18.30;99.90
34536;DHT22;20779;55.596;37.538;2022-07-10T03:58:26;18.30;99.90
34536;DHT22;20779;55.596;37.538;2022-07-10T04:00:52;18.30;99.90
34536;DHT22;20779;55.596;37.538;2022-07-10T04:03:18;18.30;99.90
34536;DHT22;20779;55.596;37.538;2022-07-10T04:05:44;18.30;99.90
34536;DHT22;20779;55.596;37.538;2022-07-10T04:08:11;18.40;99.90
34536;DHT22;20779;55.596;37.538;2022-07-10T04:10:37;18.40;99.90
34536;DHT22;20779;55.596;37.538;2022-07-10T04:13:03;18.40;99.90
34536;DHT22;20779;55.596;37.538;2022-07-10T04:15:29;18.50;99.90
34536;DHT22;20779;55.596;37.538;2022-07-10T04:17:55;18.70;99.90
34536;DHT22;20779;55.596;37.538;2022-07-10T04:20:21;18.80;99.90
34536;DHT22;20779;55.596;37.538;2022-07-10T04:22:48;19.00;99.90
34536;DHT22;20779;55.596;37.538;2022-07-10T04:25:14;19.30;99.90
34536;DHT22;20779;55.596;37.538;2022-07-10T04:27:41;19.50;99.90
34536;DHT22;20779;55.596;37.538;2022-07-10T04:30:07;19.80;99.90
34536;DHT22;20779;55.596;37.538;2022-07-10T04:32:34;20.40;99.90
34536;DHT22;20779;55.596;37.538;2022-07-10T04:35:00;20.90;99.90
34536;DHT22;20779;55.596;37.538;2022-07-10T04:37:29;20.90;99.90
34536;DHT22;20779;55.596;37.538;2022-07-10T04:39:55;21.00;99.90
34536;DHT22;20779;55.596;37.538;2022-07-10T04:42:21;20.90;99.90
34536;DHT22;20779;55.596;37.538;2022-07-10T04:44:47;20.70;99.90
34536;DHT22;20779;55.596;37.538;2022-07-10T04:47:13;20.90;99.90
34536;DHT22;20779;55.596;37.538;2022-07-10T04:49:39;21.00;99.90
34536;DHT22;20779;55.596;37.538;2022-07-10T04:52:06;20.90;99.90
34536;DHT22;20779;55.596;37.538;2022-07-10T04:54:32;21.00;99.90
34536;DHT22;20779;55.596;37.538;2022-07-10T04:56:58;21.20;99.90
34536;DHT22;20779;55.596;37.538;2022-07-10T04:59:25;21.30;99.90
34536;DHT22;20779;55.596;37.538;2022-07-10T05:01:52;21.40;99.90
34536;DHT22;20779;55.596;37.538;2022-07-10T05:04:18;21.40;99.90
34536;DHT22;20779;55.596;37.538;2022-07-10T05:06:44;21.30;99.90
34536;DHT22;20779;55.596;37.538;2022-07-10T05:09:17;21.40;99.90
34536;DHT22;20779;55.596;37.538;2022-07-10T05:12:19;21.50;99.90
34536;DHT22;20779;55.596;37.538;2022-07-10T05:14:45;21.60;99.90
34536;DHT22;20779;55.596;37.538;2022-07-10T05:17:11;21.70;99.90
34536;DHT22;20779;55.596;37.538;2022-07-10T05:19:37;21.80;99.90
34536;DHT22;20779;55.596;37.538;2022-07-10T05:22:03;21.70;99.90
34536;DHT22;20779;55.596;37.538;2022-07-10T05:24:29;21.90;99.90
34536;DHT22;20779;55.596;37.538;2022-07-10T05:26:56;21.90;99.90
34536;DHT22;20779;55.596;37.538;2022-07-10T05:29:22;22.00;99.90
34536;DHT22;20779;55.596;37.538;2022-07-10T05:31:48;22.20;99.90
34536;DHT22;20779;55.596;37.538;2022-07-10T05:34:14;22.40;99.90
34536;DHT22;20779;55.596;37.538;2022-07-10T05:36:40;22.90;99.90
34536;DHT22;20779;55.596;37.538;2022-07-10T05:39:06;23.10;99.90
34536;DHT22;20779;55.596;37.538;2022-07-10T05:41:32;23.10;99.90
34536;DHT22;20779;55.596;37.538;2022-07-10T05:43:59;22.90;99.90
34536;DHT22;20779;55.596;37.538;2022-07-10T05:46:26;23.20;99.90
34536;DHT22;20779;55.596;37.538;2022-07-10T05:48:52;23.60;99.90
34536;DHT22;20779;55.596;37.538;2022-07-10T05:51:18;24.20;99.90
34536;DHT22;20779;55.596;37.538;2022-07-10T05:53:44;25.00;99.90
34536;DHT22;20779;55.596;37.538;2022-07-10T05:56:10;25.20;99.90
34536;DHT22;20779;55.596;37.538;2022-07-10T05:58:37;25.40;99.90
34536;DHT22;20779;55.596;37.538;2022-07-10T06:01:03;25.50;99.90
34536;DHT22;20779;55.596;37.538;2022-07-10T06:03:30;25.10;99.90
34536;DHT22;20779;55.596;37.538;2022-07-10T06:05:56;24.60;99.90
34536;DHT22;20779;55.596;37.538;2022-07-10T06:08:25;24.90;99.90
34536;DHT22;20779;55.596;37.538;2022-07-10T06:10:51;25.40;99.90
34536;DHT22;20779;55.596;37.538;2022-07-10T06:13:17;25.80;99.90
34536;DHT22;20779;55.596;37.538;2022-07-10T06:15:44;25.70;99.90
34536;DHT22;20779;55.596;37.538;2022-07-10T06:18:10;25.50;99.90
34536;DHT22;20779;55.596;37.538;2022-07-10T06:20:36;25.20;99.90
34536;DHT22;20779;55.596;37.538;2022-07-10T06:23:02;25.20;99.90
34536;DHT22;20779;55.596;37.538;2022-07-10T06:25:28;25.10;99.90
34536;DHT22;20779;55.596;37.538;2022-07-10T06:27:54;25.00;99.90
34536;DHT22;20779;55.596;37.538;2022-07-10T06:30:20;24.90;99.90
34536;DHT22;20779;55.596;37.538;2022-07-10T06:32:47;24.80;99.90
34536;DHT22;20779;55.596;37.538;2022-07-10T06:35:13;24.80;99.90
34536;DHT22;20779;55.596;37.538;2022-07-10T06:37:39;24.80;99.90
34536;DHT22;20779;55.596;37.538;2022-07-10T06:40:06;24.80;99.90
34536;DHT22;20779;55.596;37.538;2022-07-10T06:42:32;24.90;99.90
34536;DHT22;20779;55.596;37.538;2022-07-10T06:45:00;25.20;99.90
34536;DHT22;20779;55.596;37.538;2022-07-10T06:47:26;25.20;99.90
34536;DHT22;20779;55.596;37.538;2022-07-10T06:50:11;25.00;99.90
34536;DHT22;20779;55.596;37.538;2022-07-10T06:52:37;24.80;99.90
34536;DHT22;20779;55.596;37.538;2022-07-10T06:55:04;24.70;99.90
34536;DHT22;20779;55.596;37.538;2022-07-10T06:57:31;24.50;99.90
34536;DHT22;20779;55.596;37.538;2022-07-10T06:59:57;24.40;99.90
34536;DHT22;20779;55.596;37.538;2022-07-10T07:02:23;24.60;99.90
34536;DHT22;20779;55.596;37.538;2022-07-10T07:04:50;24.80;99.90
34536;DHT22;20779;55.596;37.538;2022-07-10T07:07:16;24.80;99.90
34536;DHT22;20779;55.596;37.538;2022-07-10T07:09:42;24.80;99.90
34536;DHT22;20779;55.596;37.538;2022-07-10T07:12:09;25.00;99.90
34536;DHT22;20779;55.596;37.538;2022-07-10T07:14:35;25.00;99.90
34536;DHT22;20779;55.596;37.538;2022-07-10T07:17:03;25.00;99.90
34536;DHT22;20779;55.596;37.538;2022-07-10T07:19:32;25.20;99.90
34536;DHT22;20779;55.596;37.538;2022-07-10T07:22:18;25.40;99.90
34536;DHT22;20779;55.596;37.538;2022-07-10T07:25:11;25.40;99.90
34536;DHT22;20779;55.596;37.538;2022-07-10T07:27:38;25.50;99.90
34536;DHT22;20779;55.596;37.538;2022-07-10T07:30:09;25.60;99.90
34536;DHT22;20779;55.596;37.538;2022-07-10T07:32:37;25.70;99.90
34536;DHT22;20779;55.596;37.538;2022-07-10T07:35:05;25.80;99.90
34536;DHT22;20779;55.596;37.538;2022-07-10T07:40:07;25.80;99.90
34536;DHT22;20779;55.596;37.538;2022-07-10T07:42:35;25.70;99.90
34536;DHT22;20779;55.596;37.538;2022-07-10T07:45:02;25.60;99.90
34536;DHT22;20779;55.596;37.538;2022-07-10T07:47:42;25.60;99.90
34536;DHT22;20779;55.596;37.538;2022-07-10T07:50:17;25.50;99.90
34536;DHT22;20779;55.596;37.538;2022-07-10T07:52:45;25.50;99.90
34536;DHT22;20779;55.596;37.538;2022-07-10T07:55:13;25.50;99.90
34536;DHT22;20779;55.596;37.538;2022-07-10T07:57:41;25.50;99.90
34536;DHT22;20779;55.596;37.538;2022-07-10T08:00:09;25.60;99.90
34536;DHT22;20779;55.596;37.538;2022-07-10T08:02:40;25.80;99.90
34536;DHT22;20779;55.596;37.538;2022-07-10T08:05:07;25.90;99.90
34536;DHT22;20779;55.596;37.538;2022-07-10T08:07:43;26.10;99.90
34536;DHT22;20779;55.596;37.538;2022-07-10T08:10:15;26.40;99.90
34536;DHT22;20779;55.596;37.538;2022-07-10T08:12:44;26.60;99.90
34536;DHT22;20779;55.596;37.538;2022-07-10T08:15:18;26.70;99.90
34536;DHT22;20779;55.596;37.538;2022-07-10T08:17:55;26.60;99.90
34536;DHT22;20779;55.596;37.538;2022-07-10T08:20:22;26.80;99.90
34536;DHT22;20779;55.596;37.538;2022-07-10T08:22:50;26.90;99.90
34536;DHT22;20779;55.596;37.538;2022-07-10T08:25:18;27.10;99.90
34536;DHT22;20779;55.596;37.538;2022-07-10T08:27:45;27.10;99.90
34536;DHT22;20779;55.596;37.538;2022-07-10T08:30:12;27.00;99.90
34536;DHT22;20779;55.596;37.538;2022-07-10T08:32:39;27.10;99.90
34536;DHT22;20779;55.596;37.538;2022-07-10T08:35:06;27.00;99.90
34536;DHT22;20779;55.596;37.538;2022-07-10T08:37:43;27.10;99.90
34536;DHT22;20779;55.596;37.538;2022-07-10T08:40:12;27.20;99.90
34536;DHT22;20779;55.596;37.538;2022-07-10T08:42:40;27.30;99.90
34536;DHT22;20779;55.596;37.538;2022-07-10T08:45:07;27.40;99.90
34536;DHT22;20779;55.596;37.538;2022-07-10T08:47:35;27.40;99.90
34536;DHT22;20779;55.596;37.538;2022-07-10T08:50:03;27.40;99.90
34536;DHT22;20779;55.596;37.538;2022-07-10T08:52:44;27.40;99.90
34536;DHT22;20779;55.596;37.538;2022-07-10T08:55:24;27.40;99.90
34536;DHT22;20779;55.596;37.538;2022-07-10T08:57:51;27.50;99.90
34536;DHT22;20779;55.596;37.538;2022-07-10T09:00:20;27.40;99.90
34536;DHT22;20779;55.596;37.538;2022-07-10T09:02:46;27.40;99.90
34536;DHT22;20779;55.596;37.538;2022-07-10T09:05:12;27.30;99.90
34536;DHT22;20779;55.596;37.538;2022-07-10T09:07:40;27.20;99.90
34536;DHT22;20779;55.596;37.538;2022-07-10T09:10:11;27.30;99.90
34536;DHT22;20779;55.596;37.538;2022-07-10T09:12:51;27.40;99.90
34536;DHT22;20779;55.596;37.538;2022-07-10T09:15:24;27.30;99.90
34536;DHT22;20779;55.596;37.538;2022-07-10T09:17:56;26.90;99.90
34536;DHT22;20779;55.596;37.538;2022-07-10T09:20:28;27.00;99.90
34536;DHT22;20779;55.596;37.538;2022-07-10T09:23:17;27.00;99.90
34536;DHT22;20779;55.596;37.538;2022-07-10T09:25:49;27.00;99.90
34536;DHT22;20779;55.596;37.538;2022-07-10T09:28:18;27.20;99.90
34536;DHT22;20779;55.596;37.538;2022-07-10T09:30:48;27.20;99.90
34536;DHT22;20779;55.596;37.538;2022-07-10T09:33:27;27.10;99.90
34536;DHT22;20779;55.596;37.538;2022-07-10T09:41:19;26.90;99.90
34536;DHT22;20779;55.596;37.538;2022-07-10T09:43:55;27.00;99.90
34536;DHT22;20779;55.596;37.538;2022-07-10T09:46:33;26.80;99.90
34536;DHT22;20779;55.596;37.538;2022-07-10T09:49:08;26.70;99.90
34536;DHT22;20779;55.596;37.538;2022-07-10T09:51:36;26.80;99.90
34536;DHT22;20779;55.596;37.538;2022-07-10T09:54:10;26.80;99.90
34536;DHT22;20779;55.596;37.538;2022-07-10T09:59:15;26.60;99.90
34536;DHT22;20779;55.596;37.538;2022-07-10T10:01:52;26.60;99.90
34536;DHT22;20779;55.596;37.538;2022-07-10T10:04:20;26.70;99.90
34536;DHT22;20779;55.596;37.538;2022-07-10T10:06:56;26.80;99.90
34536;DHT22;20779;55.596;37.538;2022-07-10T10:09:55;26.90;99.90
34536;DHT22;20779;55.596;37.538;2022-07-10T10:12:44;27.00;99.90
34536;DHT22;20779;55.596;37.538;2022-07-10T10:15:17;27.10;99.90
34536;DHT22;20779;55.596;37.538;2022-07-10T10:18:17;27.00;99.90
34536;DHT22;20779;55.596;37.538;2022-07-10T10:20:48;27.00;99.90
34536;DHT22;20779;55.596;37.538;2022-07-10T10:23:19;27.10;99.90
34536;DHT22;20779;55.596;37.538;2022-07-10T10:25:48;27.10;99.90
34536;DHT22;20779;55.596;37.538;2022-07-10T10:28:20;27.00;99.90
34536;DHT22;20779;55.596;37.538;2022-07-10T10:30:51;27.10;99.90
34536;DHT22;20779;55.596;37.538;2022-07-10T10:35:58;27.10;99.90
34536;DHT22;20779;55.596;37.538;2022-07-10T10:46:35;27.40;99.90
34536;DHT22;20779;55.596;37.538;2022-07-10T10:49:08;27.40;99.90
34536;DHT22;20779;55.596;37.538;2022-07-10T10:51:56;27.50;99.90
34536;DHT22;20779;55.596;37.538;2022-07-10T10:54:31;27.60;99.90
34536;DHT22;20779;55.596;37.538;2022-07-10T10:57:38;27.70;99.90
34536;DHT22;20779;55.596;37.538;2022-07-10T11:00:13;27.80;99.90
34536;DHT22;20779;55.596;37.538;2022-07-10T11:02:43;27.90;99.90
34536;DHT22;20779;55.596;37.538;2022-07-10T11:10:31;28.10;99.90
34536;DHT22;20779;55.596;37.538;2022-07-10T11:15:29;28.30;99.90
34536;DHT22;20779;55.596;37.538;2022-07-10T11:17:59;28.40;99.90
34536;DHT22;20779;55.596;37.538;2022-07-10T11:20:51;28.60;99.90
34536;DHT22;20779;55.596;37.538;2022-07-10T11:31:23;29.20;99.90
34536;DHT22;20779;55.596;37.538;2022-07-10T11:33:52;29.00;99.90
34536;DHT22;20779;55.596;37.538;2022-07-10T11:36:29;29.00;99.90
34536;DHT22;20779;55.596;37.538;2022-07-10T11:39:05;29.00;99.90
34536;DHT22;20779;55.596;37.538;2022-07-10T11:41:33;28.90;99.90
34536;DHT22;20779;55.596;37.538;2022-07-10T11:44:00;28.90;99.90
34536;DHT22;20779;55.596;37.538;2022-07-10T11:46:29;28.90;99.90
34536;DHT22;20779;55.596;37.538;2022-07-10T11:48:57;29.00;99.90
34536;DHT22;20779;55.596;37.538;2022-07-10T11:51:26;29.20;99.90
34536;DHT22;20779;55.596;37.538;2022-07-10T11:53:59;29.50;99.90
34536;DHT22;20779;55.596;37.538;2022-07-10T11:56:30;29.70;99.90
34536;DHT22;20779;55.596;37.538;2022-07-10T11:59:01;29.80;99.90
34536;DHT22;20779;55.596;37.538;2022-07-10T12:01:29;29.80;99.90
34536;DHT22;20779;55.596;37.538;2022-07-10T12:04:02;29.70;99.90
34536;DHT22;20779;55.596;37.538;2022-07-10T12:06:30;29.90;99.90
34536;DHT22;20779;55.596;37.538;2022-07-10T12:09:04;29.90;99.90
34536;DHT22;20779;55.596;37.538;2022-07-10T12:11:45;29.90;99.90
34536;DHT22;20779;55.596;37.538;2022-07-10T12:14:27;29.80;99.90
34536;DHT22;20779;55.596;37.538;2022-07-10T12:16:54;29.70;99.90
34536;DHT22;20779;55.596;37.538;2022-07-10T12:19:36;29.60;99.90
34536;DHT22;20779;55.596;37.538;2022-07-10T12:22:05;29.50;99.90
34536;DHT22;20779;55.596;37.538;2022-07-10T12:24:32;29.50;99.90
34536;DHT22;20779;55.596;37.538;2022-07-10T12:26:58;29.60;99.90
34536;DHT22;20779;55.596;37.538;2022-07-10T12:29:26;29.70;99.90
34536;DHT22;20779;55.596;37.538;2022-07-10T12:31:57;29.90;99.90
34536;DHT22;20779;55.596;37.538;2022-07-10T12:34:40;30.00;99.90
34536;DHT22;20779;55.596;37.538;2022-07-10T12:37:14;30.00;99.90
34536;DHT22;20779;55.596;37.538;2022-07-10T12:39:52;29.80;99.90
34536;DHT22;20779;55.596;37.538;2022-07-10T12:42:29;29.60;99.90
34536;DHT22;20779;55.596;37.538;2022-07-10T12:45:12;29.60;99.90
34536;DHT22;20779;55.596;37.538;2022-07-10T12:47:47;29.70;99.90
34536;DHT22;20779;55.596;37.538;2022-07-10T12:50:15;29.70;99.90
34536;DHT22;20779;55.596;37.538;2022-07-10T12:52:43;29.60;99.90
34536;DHT22;20779;55.596;37.538;2022-07-10T12:58:03;29.30;99.90
34536;DHT22;20779;55.596;37.538;2022-07-10T13:00:45;29.30;99.90
34536;DHT22;20779;55.596;37.538;2022-07-10T13:03:21;29.20;99.90
34536;DHT22;20779;55.596;37.538;2022-07-10T13:05:50;29.10;99.90
34536;DHT22;20779;55.596;37.538;2022-07-10T13:08:21;29.30;99.90
34536;DHT22;20779;55.596;37.538;2022-07-10T13:10:55;29.30;99.90
34536;DHT22;20779;55.596;37.538;2022-07-10T13:13:24;29.40;99.90
34536;DHT22;20779;55.596;37.538;2022-07-10T13:15:51;29.40;99.90
34536;DHT22;20779;55.596;37.538;2022-07-10T13:18:25;29.40;99.90
34536;DHT22;20779;55.596;37.538;2022-07-10T13:20:57;29.30;99.90
34536;DHT22;20779;55.596;37.538;2022-07-10T13:23:25;29.10;99.90
34536;DHT22;20779;55.596;37.538;2022-07-10T13:25:55;29.00;99.90
34536;DHT22;20779;55.596;37.538;2022-07-10T13:28:25;28.90;99.90
34536;DHT22;20779;55.596;37.538;2022-07-10T13:30:51;28.80;99.90
34536;DHT22;20779;55.596;37.538;2022-07-10T13:33:18;28.70;99.90
34536;DHT22;20779;55.596;37.538;2022-07-10T13:35:44;28.80;99.90
34536;DHT22;20779;55.596;37.538;2022-07-10T13:38:10;28.70;99.90
34536;DHT22;20779;55.596;37.538;2022-07-10T13:40:37;28.70;99.90
34536;DHT22;20779;55.596;37.538;2022-07-10T13:43:04;28.60;99.90
34536;DHT22;20779;55.596;37.538;2022-07-10T13:45:35;28.60;99.90
34536;DHT22;20779;55.596;37.538;2022-07-10T13:48:34;28.60;99.90
34536;DHT22;20779;55.596;37.538;2022-07-10T13:51:01;28.50;99.90
34536;DHT22;20779;55.596;37.538;2022-07-10T13:53:27;28.30;99.90
34536;DHT22;20779;55.596;37.538;2022-07-10T13:55:54;28.10;99.90
34536;DHT22;20779;55.596;37.538;2022-07-10T13:58:20;28.10;99.90
34536;DHT22;20779;55.596;37.538;2022-07-10T14:00:47;27.90;99.90
34536;DHT22;20779;55.596;37.538;2022-07-10T14:03:14;27.80;99.90
34536;DHT22;20779;55.596;37.538;2022-07-10T14:05:40;27.70;99.90
34536;DHT22;20779;55.596;37.538;2022-07-10T14:08:07;27.60;99.90
34536;DHT22;20779;55.596;37.538;2022-07-10T14:10:33;27.50;99.90
34536;DHT22;20779;55.596;37.538;2022-07-10T14:12:59;27.30;99.90
34536;DHT22;20779;55.596;37.538;2022-07-10T14:15:26;27.20;99.90
34536;DHT22;20779;55.596;37.538;2022-07-10T14:17:52;27.10;99.90
34536;DHT22;20779;55.596;37.538;2022-07-10T14:20:19;27.00;99.90
34536;DHT22;20779;55.596;37.538;2022-07-10T14:22:45;26.90;99.90
34536;DHT22;20779;55.596;37.538;2022-07-10T14:25:12;26.50;99.90
34536;DHT22;20779;55.596;37.538;2022-07-10T14:27:39;25.00;99.90
34536;DHT22;20779;55.596;37.538;2022-07-10T14:30:06;23.80;99.90
34536;DHT22;20779;55.596;37.538;2022-07-10T14:32:33;22.90;99.90
34536;DHT22;20779;55.596;37.538;2022-07-10T14:34:59;22.00;99.90
34536;DHT22;20779;55.596;37.538;2022-07-10T14:37:25;21.00;99.90
34536;DHT22;20779;55.596;37.538;2022-07-10T14:39:51;20.30;99.90
34536;DHT22;20779;55.596;37.538;2022-07-10T14:42:17;19.80;99.90
34536;DHT22;20779;55.596;37.538;2022-07-10T14:44:44;19.50;99.90
34536;DHT22;20779;55.596;37.538;2022-07-10T14:47:10;19.20;99.90
34536;DHT22;20779;55.596;37.538;2022-07-10T14:49:36;19.00;99.90
34536;DHT22;20779;55.596;37.538;2022-07-10T14:52:03;18.70;99.90
34536;DHT22;20779;55.596;37.538;2022-07-10T14:54:30;18.60;99.90
34536;DHT22;20779;55.596;37.538;2022-07-10T14:56:56;18.50;99.90
34536;DHT22;20779;55.596;37.538;2022-07-10T14:59:22;18.40;99.90
34536;DHT22;20779;55.596;37.538;2022-07-10T15:01:49;18.30;99.90
34536;DHT22;20779;55.596;37.538;2022-07-10T15:04:15;18.30;99.90
34536;DHT22;20779;55.596;37.538;2022-07-10T15:06:41;18.40;99.90
34536;DHT22;20779;55.596;37.538;2022-07-10T15:09:07;18.50;99.90
34536;DHT22;20779;55.596;37.538;2022-07-10T15:11:33;18.60;99.90
34536;DHT22;20779;55.596;37.538;2022-07-10T15:13:59;18.60;99.90
34536;DHT22;20779;55.596;37.538;2022-07-10T15:16:27;18.70;99.90
34536;DHT22;20779;55.596;37.538;2022-07-10T15:18:54;18.70;99.90
34536;DHT22;20779;55.596;37.538;2022-07-10T15:21:20;18.90;99.90
34536;DHT22;20779;55.596;37.538;2022-07-10T15:23:46;19.00;99.90
34536;DHT22;20779;55.596;37.538;2022-07-10T15:26:14;19.00;99.90
34536;DHT22;20779;55.596;37.538;2022-07-10T15:28:41;19.00;99.90
34536;DHT22;20779;55.596;37.538;2022-07-10T15:31:07;19.00;99.90
34536;DHT22;20779;55.596;37.538;2022-07-10T15:33:33;19.10;99.90
34536;DHT22;20779;55.596;37.538;2022-07-10T15:36:03;19.20;99.90
34536;DHT22;20779;55.596;37.538;2022-07-10T15:38:29;19.40;99.90
34536;DHT22;20779;55.596;37.538;2022-07-10T15:40:59;19.50;99.90
34536;DHT22;20779;55.596;37.538;2022-07-10T15:43:25;19.40;99.90
34536;DHT22;20779;55.596;37.538;2022-07-10T15:45:54;19.30;99.90
34536;DHT22;20779;55.596;37.538;2022-07-10T15:48:20;19.30;99.90
34536;DHT22;20779;55.596;37.538;2022-07-10T15:50:47;19.20;99.90
34536;DHT22;20779;55.596;37.538;2022-07-10T15:53:13;19.20;99.90
34536;DHT22;20779;55.596;37.538;2022-07-10T15:55:39;19.20;99.90
34536;DHT22;20779;55.596;37.538;2022-07-10T15:58:05;19.20;99.90
34536;DHT22;20779;55.596;37.538;2022-07-10T16:00:31;19.30;99.90
34536;DHT22;20779;55.596;37.538;2022-07-10T16:02:57;19.30;99.90
34536;DHT22;20779;55.596;37.538;2022-07-10T16:05:25;19.10;99.90